Time;durP1;ratioP1;P1;durP2;ratioP2;P2;SDS_P1;SDS_P2;PMS_P1;PMS_P2;Temp;Humidity;BMP_temperature;BMP_pressure;BME280_temperature;BME280_humidity;BME280_pressure;Samples;Min_cycle;Max_cycle;Signal;HPM_P1;HPM_P2
2021/01/06 00:01:12;;;;;;;25.13;18.80;;;3.80;99.90;;;;;;5030602;28;20453;-88
2021/01/06 00:03:39;;;;;;;21.97;16.40;;;3.80;99.90;;;;;;5028805;28;20481;-87
2021/01/06 00:06:08;;;;;;;20.20;15.70;;;3.90;99.90;;;;;;5025388;28;20445;-87
2021/01/06 00:08:35;;;;;;;22.70;16.67;;;3.90;99.90;;;;;;5031287;28;20511;-87
2021/01/06 00:11:02;;;;;;;21.30;15.60;;;3.90;99.90;;;;;;5043022;28;20575;-87
2021/01/06 00:13:29;;;;;;;22.30;16.50;;;3.80;99.90;;;;;;5037925;28;20465;-87
2021/01/06 00:15:55;;;;;;;20.73;17.13;;;3.80;99.90;;;;;;5031301;28;20441;-88
2021/01/06 00:18:23;;;;;;;20.67;17.00;;;3.90;99.90;;;;;;5027481;28;20451;-89
2021/01/06 00:20:51;;;;;;;22.60;15.40;;;3.90;99.90;;;;;;5029493;28;20499;-87
2021/01/06 00:23:17;;;;;;;21.13;16.00;;;3.90;99.90;;;;;;5028807;28;20477;-88
2021/01/06 00:25:44;;;;;;;22.40;16.77;;;3.90;99.90;;;;;;5027010;28;20449;-87
2021/01/06 00:28:12;;;;;;;18.90;15.77;;;3.90;99.90;;;;;;5029163;28;20445;-86
2021/01/06 00:30:40;;;;;;;19.00;15.60;;;3.90;99.90;;;;;;5028324;28;20433;-87
2021/01/06 00:33:08;;;;;;;25.27;18.43;;;3.90;99.90;;;;;;5030195;28;20530;-88
2021/01/06 00:35:34;;;;;;;18.57;15.70;;;3.80;99.90;;;;;;5024300;28;20511;-87
2021/01/06 00:38:02;;;;;;;20.00;16.10;;;3.80;99.90;;;;;;5028159;28;20456;-87
2021/01/06 00:40:30;;;;;;;22.40;16.23;;;3.80;99.90;;;;;;5028909;28;20445;-87
2021/01/06 00:42:57;;;;;;;22.00;16.20;;;3.70;99.90;;;;;;5028945;28;20863;-87
2021/01/06 00:45:26;;;;;;;22.07;17.00;;;3.70;99.90;;;;;;5027555;28;20437;-87
2021/01/06 00:47:53;;;;;;;21.60;17.03;;;3.80;99.90;;;;;;5028049;28;20449;-87
2021/01/06 00:50:24;;;;;;;19.57;14.93;;;3.70;99.90;;;;;;5028646;28;20445;-87
2021/01/06 00:52:50;;;;;;;22.77;16.27;;;3.70;99.90;;;;;;5028625;28;20473;-87
2021/01/06 00:55:18;;;;;;;21.90;16.50;;;3.70;99.90;;;;;;5028007;28;20449;-88
2021/01/06 00:57:44;;;;;;;24.13;16.20;;;3.70;99.90;;;;;;5026783;28;21020;-88
2021/01/06 01:00:15;;;;;;;23.07;16.70;;;3.70;99.90;;;;;;5028665;28;20444;-87
2021/01/06 01:02:45;;;;;;;22.90;16.10;;;3.70;99.90;;;;;;5027275;28;20523;-86
2021/01/06 01:05:12;;;;;;;21.10;15.07;;;3.80;99.90;;;;;;5027984;28;20449;-87
2021/01/06 01:07:38;;;;;;;22.20;15.33;;;3.70;99.90;;;;;;5028585;28;20499;-87
2021/01/06 01:10:06;;;;;;;22.20;16.40;;;3.70;99.90;;;;;;5028440;28;20451;-86
2021/01/06 01:12:33;;;;;;;20.83;15.60;;;3.60;99.90;;;;;;5026939;28;20466;-87
2021/01/06 01:14:59;;;;;;;20.73;14.47;;;3.60;99.90;;;;;;5027707;28;20453;-89
2021/01/06 01:17:25;;;;;;;23.80;15.60;;;3.60;99.90;;;;;;5032319;28;20835;-86
2021/01/06 01:19:51;;;;;;;19.13;13.97;;;3.70;99.90;;;;;;5030781;28;20802;-87
2021/01/06 01:22:17;;;;;;;19.40;14.40;;;3.60;99.90;;;;;;5032514;28;20465;-87
2021/01/06 01:24:44;;;;;;;23.40;14.73;;;3.60;99.90;;;;;;5031846;28;20488;-88
2021/01/06 01:27:10;;;;;;;20.17;14.37;;;3.60;99.90;;;;;;5032298;28;20429;-87
2021/01/06 01:29:37;;;;;;;22.70;16.27;;;3.60;99.90;;;;;;5029137;28;20442;-87
2021/01/06 01:32:04;;;;;;;20.77;15.20;;;3.60;99.90;;;;;;5032521;28;20444;-86
2021/01/06 01:34:30;;;;;;;20.00;15.53;;;3.60;99.90;;;;;;5031396;28;20507;-86
2021/01/06 01:36:56;;;;;;;20.33;14.10;;;3.50;99.90;;;;;;5032122;28;20456;-87
2021/01/06 01:39:22;;;;;;;21.57;15.13;;;3.60;99.90;;;;;;5032404;28;20477;-88
2021/01/06 01:41:56;;;;;;;20.30;14.73;;;3.60;99.90;;;;;;5031119;28;20467;-87
2021/01/06 01:44:23;;;;;;;20.70;13.67;;;3.60;99.90;;;;;;5030304;28;20542;-87
2021/01/06 01:47:05;;;;;;;20.87;14.40;;;3.60;99.90;;;;;;5031988;28;20437;-86
2021/01/06 01:49:40;;;;;;;17.80;12.67;;;3.50;99.90;;;;;;5031013;28;20452;-86
2021/01/06 01:52:17;;;;;;;17.77;13.70;;;3.50;99.90;;;;;;5030077;28;20478;-86
2021/01/06 01:54:44;;;;;;;18.23;13.80;;;3.50;99.90;;;;;;5030510;28;20445;-87
2021/01/06 01:57:13;;;;;;;17.80;13.33;;;3.50;99.90;;;;;;5031948;28;20445;-88
2021/01/06 01:59:46;;;;;;;20.67;15.60;;;3.50;99.90;;;;;;5030188;28;20460;-88
2021/01/06 02:02:17;;;;;;;19.70;14.47;;;3.60;99.90;;;;;;5030333;28;20566;-87
2021/01/06 02:04:49;;;;;;;19.10;13.93;;;3.50;99.90;;;;;;5031472;28;20534;-87
2021/01/06 02:07:19;;;;;;;16.80;13.73;;;3.50;99.90;;;;;;5031645;28;20451;-88
2021/01/06 02:09:52;;;;;;;20.80;15.57;;;3.50;99.90;;;;;;5031663;28;20438;-87
2021/01/06 02:12:24;;;;;;;16.20;13.60;;;3.50;99.90;;;;;;5031789;28;20469;-87
2021/01/06 02:15:04;;;;;;;19.47;14.53;;;3.50;99.90;;;;;;5031287;28;20455;-87
2021/01/06 02:17:31;;;;;;;20.07;13.43;;;3.40;99.90;;;;;;5030581;28;20460;-87
2021/01/06 02:19:57;;;;;;;17.73;13.80;;;3.50;99.90;;;;;;5031860;28;20821;-87
2021/01/06 02:22:24;;;;;;;17.03;14.00;;;3.40;99.90;;;;;;5031826;28;20469;-88
2021/01/06 02:24:52;;;;;;;19.37;15.50;;;3.30;99.90;;;;;;5031369;28;21089;-86
2021/01/06 02:27:19;;;;;;;19.70;14.50;;;3.30;99.90;;;;;;5034934;28;20444;-87
2021/01/06 02:29:46;;;;;;;20.30;14.83;;;3.30;99.90;;;;;;5035176;28;20458;-87
2021/01/06 02:32:13;;;;;;;19.70;15.00;;;3.30;99.90;;;;;;5031114;28;20464;-87
2021/01/06 02:34:41;;;;;;;18.43;13.47;;;3.30;99.90;;;;;;5030758;28;20453;-89
2021/01/06 02:37:08;;;;;;;21.00;13.53;;;3.30;99.90;;;;;;5029422;28;20452;-86
2021/01/06 02:39:36;;;;;;;18.10;13.73;;;3.20;99.90;;;;;;5030920;28;20444;-88
2021/01/06 02:42:03;;;;;;;20.20;14.73;;;3.20;99.90;;;;;;5031051;28;20544;-86
2021/01/06 02:44:30;;;;;;;17.60;13.47;;;3.20;99.90;;;;;;5030753;28;20484;-87
2021/01/06 02:46:57;;;;;;;20.47;14.67;;;3.10;99.90;;;;;;5031059;28;20445;-87
2021/01/06 02:49:24;;;;;;;20.57;14.63;;;3.10;99.90;;;;;;5030894;28;20447;-87
2021/01/06 02:51:53;;;;;;;20.00;14.10;;;3.10;99.90;;;;;;5030955;28;20774;-88
2021/01/06 02:54:22;;;;;;;21.43;14.33;;;3.10;99.90;;;;;;5030649;28;20433;-87
2021/01/06 02:56:53;;;;;;;18.77;15.20;;;3.10;99.90;;;;;;5030808;28;20463;-87
2021/01/06 02:59:23;;;;;;;22.07;14.63;;;3.10;99.90;;;;;;5030980;28;20465;-86
2021/01/06 03:01:52;;;;;;;17.70;13.33;;;3.00;99.90;;;;;;5030803;28;20949;-88
2021/01/06 03:04:23;;;;;;;20.93;14.67;;;3.00;99.90;;;;;;5030778;28;20491;-87
2021/01/06 03:06:54;;;;;;;18.43;13.97;;;2.90;99.90;;;;;;5030487;28;20558;-87
2021/01/06 03:09:26;;;;;;;20.17;14.87;;;2.90;99.90;;;;;;5030669;28;20439;-89
2021/01/06 03:11:53;;;;;;;18.27;14.03;;;2.90;99.90;;;;;;5030938;28;20826;-87
2021/01/06 03:14:19;;;;;;;19.10;15.30;;;2.90;99.90;;;;;;5030670;28;20472;-86
2021/01/06 03:16:46;;;;;;;18.53;14.40;;;2.90;99.90;;;;;;5030266;28;20459;-87
2021/01/06 03:19:13;;;;;;;18.37;13.60;;;2.90;99.90;;;;;;5030811;28;20497;-86
2021/01/06 03:21:42;;;;;;;19.97;14.27;;;2.90;99.90;;;;;;5030113;28;20457;-87
2021/01/06 03:24:10;;;;;;;20.77;15.20;;;2.90;99.90;;;;;;5028691;28;21132;-86
2021/01/06 03:26:37;;;;;;;21.20;14.20;;;2.90;99.90;;;;;;5030069;28;20444;-88
2021/01/06 03:29:05;;;;;;;21.17;14.47;;;2.80;99.90;;;;;;5030732;28;20500;-88
2021/01/06 03:31:37;;;;;;;19.87;15.20;;;2.90;99.90;;;;;;5030135;28;20452;-89
2021/01/06 03:34:10;;;;;;;21.83;16.53;;;2.90;99.90;;;;;;5030478;28;20490;-87
2021/01/06 03:36:41;;;;;;;19.90;15.03;;;2.90;99.90;;;;;;5029717;28;20459;-86
2021/01/06 03:39:14;;;;;;;19.97;14.87;;;2.90;99.90;;;;;;5030688;28;20510;-87
2021/01/06 03:41:41;;;;;;;17.00;13.77;;;2.90;99.90;;;;;;5029216;28;20443;-87
2021/01/06 03:44:10;;;;;;;22.97;15.07;;;2.90;99.90;;;;;;5028147;28;20883;-87
2021/01/06 03:46:45;;;;;;;17.97;15.10;;;2.80;99.90;;;;;;5030093;28;20533;-87
2021/01/06 03:49:21;;;;;;;22.13;16.87;;;2.80;99.90;;;;;;5028957;28;20443;-86
2021/01/06 03:52:01;;;;;;;24.23;16.50;;;2.80;99.90;;;;;;5029583;28;20467;-86
2021/01/06 03:54:34;;;;;;;20.23;15.50;;;2.80;99.90;;;;;;5028707;28;20447;-87
2021/01/06 03:57:04;;;;;;;18.37;14.67;;;2.90;99.90;;;;;;5030459;28;20440;-87
2021/01/06 03:59:35;;;;;;;18.93;15.17;;;2.90;99.90;;;;;;5030152;28;20487;-87
2021/01/06 04:02:08;;;;;;;19.97;15.03;;;2.90;99.90;;;;;;5029894;28;20452;-87
2021/01/06 04:04:37;;;;;;;19.93;14.60;;;2.80;99.90;;;;;;5030183;28;20563;-87
2021/01/06 04:07:06;;;;;;;17.37;13.43;;;2.80;99.90;;;;;;5034023;28;21007;-87
2021/01/06 04:09:37;;;;;;;19.07;15.07;;;2.80;99.90;;;;;;5033882;28;20447;-87
2021/01/06 04:12:08;;;;;;;16.43;12.67;;;2.90;99.90;;;;;;5033844;28;20491;-86
2021/01/06 04:14:35;;;;;;;16.03;14.20;;;2.90;99.90;;;;;;5033415;28;20456;-87
2021/01/06 04:17:16;;;;;;;19.73;13.73;;;2.90;99.90;;;;;;5033643;28;20470;-87
2021/01/06 04:19:46;;;;;;;18.60;14.57;;;2.90;99.90;;;;;;5032465;28;20456;-88
2021/01/06 04:22:13;;;;;;;21.20;15.20;;;2.90;99.90;;;;;;5033682;28;20456;-86
2021/01/06 04:24:39;;;;;;;20.23;13.57;;;2.90;99.90;;;;;;5033204;28;20709;-86
2021/01/06 04:27:05;;;;;;;23.83;16.50;;;2.90;99.90;;;;;;5033716;28;20444;-87
2021/01/06 04:29:32;;;;;;;18.70;14.50;;;2.90;99.90;;;;;;5033480;28;20451;-87
2021/01/06 04:31:59;;;;;;;19.53;15.10;;;2.90;99.90;;;;;;5033654;28;20452;-87
2021/01/06 04:34:25;;;;;;;21.00;15.30;;;2.90;99.90;;;;;;5032770;28;20449;-86
2021/01/06 04:36:51;;;;;;;22.17;15.47;;;2.90;99.90;;;;;;5033494;28;20971;-86
2021/01/06 04:39:17;;;;;;;17.77;14.93;;;2.90;99.90;;;;;;5033833;28;20449;-87
2021/01/06 04:41:54;;;;;;;22.60;16.60;;;2.90;99.90;;;;;;5040390;28;20453;-87
2021/01/06 04:44:41;;;;;;;21.27;15.23;;;2.90;99.90;;;;;;5038710;28;20483;-86
2021/01/06 04:47:48;;;;;;;19.70;15.00;;;2.90;99.90;;;;;;5032865;28;20443;-86
2021/01/06 04:50:53;;;;;;;17.10;13.80;;;2.90;99.90;;;;;;5032188;28;20452;-88
2021/01/06 04:53:32;;;;;;;19.93;14.97;;;2.90;99.90;;;;;;5032911;28;20474;-87
2021/01/06 04:56:09;;;;;;;21.23;14.73;;;2.90;99.90;;;;;;5031662;28;20440;-87
2021/01/06 04:58:43;;;;;;;19.03;14.80;;;2.90;99.90;;;;;;5033012;28;20446;-88
2021/01/06 05:01:32;;;;;;;22.23;15.03;;;2.90;99.90;;;;;;5031441;28;20449;-88
2021/01/06 05:04:14;;;;;;;20.70;15.40;;;2.90;99.90;;;;;;5031314;28;20484;-87
2021/01/06 05:06:57;;;;;;;19.20;14.90;;;2.90;99.90;;;;;;5031094;28;20973;-88
2021/01/06 05:09:28;;;;;;;22.17;15.73;;;2.80;99.90;;;;;;5030876;28;20470;-85
2021/01/06 05:12:02;;;;;;;17.43;14.30;;;2.90;99.90;;;;;;5031095;28;20433;-86
2021/01/06 05:14:32;;;;;;;18.07;14.17;;;2.90;99.90;;;;;;5029049;28;20460;-86
2021/01/06 05:16:59;;;;;;;19.07;14.70;;;2.80;99.90;;;;;;5031414;28;20443;-87
2021/01/06 05:19:31;;;;;;;18.87;14.00;;;2.80;99.90;;;;;;5032175;28;20514;-87
2021/01/06 05:21:58;;;;;;;18.53;14.80;;;2.80;99.90;;;;;;5031307;28;20934;-87
2021/01/06 05:24:32;;;;;;;16.90;13.27;;;2.80;99.90;;;;;;5030564;28;20480;-86
2021/01/06 05:27:15;;;;;;;18.40;12.90;;;2.80;99.90;;;;;;5031333;28;20457;-86
2021/01/06 05:29:43;;;;;;;18.73;12.97;;;2.80;99.90;;;;;;5031029;28;20831;-86
2021/01/06 05:32:16;;;;;;;16.33;12.43;;;2.80;99.90;;;;;;5030536;28;20472;-87
2021/01/06 05:34:44;;;;;;;18.20;14.07;;;2.80;99.90;;;;;;5030498;28;20452;-87
2021/01/06 05:37:15;;;;;;;17.27;12.77;;;2.80;99.90;;;;;;5030522;28;20448;-87
2021/01/06 05:39:41;;;;;;;19.93;13.27;;;2.80;99.90;;;;;;5030872;28;20452;-87
2021/01/06 05:42:12;;;;;;;14.00;11.40;;;2.80;99.90;;;;;;5032314;28;20462;-88
2021/01/06 05:44:38;;;;;;;17.07;13.20;;;2.80;99.90;;;;;;5029506;28;20491;-87
2021/01/06 05:47:15;;;;;;;19.20;13.50;;;2.80;99.90;;;;;;5031933;28;20440;-88
2021/01/06 05:49:42;;;;;;;19.10;13.17;;;2.90;99.90;;;;;;5030508;28;20454;-86
2021/01/06 05:52:11;;;;;;;14.80;11.27;;;2.90;99.90;;;;;;5030386;28;20460;-86
2021/01/06 05:54:40;;;;;;;13.60;12.00;;;2.90;99.90;;;;;;5031408;28;20443;-88
2021/01/06 05:57:16;;;;;;;16.73;12.13;;;2.90;99.90;;;;;;5031965;28;20447;-87
2021/01/06 06:00:26;;;;;;;14.80;11.97;;;2.90;99.90;;;;;;5030336;28;20452;-86
2021/01/06 06:03:29;;;;;;;14.47;11.80;;;2.90;99.90;;;;;;4980852;28;20556;-88
2021/01/06 06:06:02;;;;;;;14.67;12.17;;;2.90;99.90;;;;;;5029826;28;20909;-87
2021/01/06 06:08:45;;;;;;;13.43;11.50;;;2.80;99.90;;;;;;5030537;28;20441;-88
2021/01/06 06:12:00;;;;;;;14.67;11.60;;;2.80;99.90;;;;;;5030459;28;20440;-86
2021/01/06 06:14:53;;;;;;;12.03;10.70;;;2.90;99.90;;;;;;5029565;28;20497;-87
2021/01/06 06:17:28;;;;;;;15.37;12.03;;;2.90;99.90;;;;;;5031307;28;20440;-88
2021/01/06 06:20:08;;;;;;;13.13;11.23;;;2.90;99.90;;;;;;5029938;28;20497;-87
2021/01/06 06:22:42;;;;;;;12.83;11.37;;;2.90;99.90;;;;;;5030896;28;20468;-88
2021/01/06 06:25:20;;;;;;;13.10;11.70;;;2.90;99.90;;;;;;5029158;28;20478;-87
2021/01/06 06:27:58;;;;;;;13.83;11.70;;;2.90;99.90;;;;;;5029766;28;20510;-87
2021/01/06 06:30:41;;;;;;;10.97;9.40;;;2.90;99.90;;;;;;5029422;28;20447;-88
2021/01/06 06:33:22;;;;;;;13.57;10.93;;;2.90;99.90;;;;;;5031000;28;20467;-87
2021/01/06 06:35:50;;;;;;;11.37;10.17;;;2.90;99.90;;;;;;5030301;28;20449;-87
2021/01/06 06:38:18;;;;;;;11.60;8.90;;;2.90;99.90;;;;;;5031201;28;20907;-88
2021/01/06 06:41:00;;;;;;;11.60;10.40;;;3.00;99.90;;;;;;5031121;28;20448;-87
2021/01/06 06:43:31;;;;;;;11.50;9.43;;;2.90;99.90;;;;;;5029245;28;20467;-87
2021/01/06 06:46:05;;;;;;;11.27;9.03;;;3.00;99.90;;;;;;5029521;28;20432;-88
2021/01/06 06:48:41;;;;;;;10.70;9.60;;;3.00;99.90;;;;;;5030420;28;20456;-87
2021/01/06 06:51:15;;;;;;;11.43;10.00;;;2.90;99.90;;;;;;5031001;28;20474;-86
2021/01/06 06:53:57;;;;;;;11.87;9.90;;;2.90;99.90;;;;;;5031413;28;20472;-88
2021/01/06 06:56:32;;;;;;;11.00;9.33;;;2.80;99.90;;;;;;5033936;28;20444;-87
2021/01/06 06:59:05;;;;;;;11.67;9.50;;;2.90;99.90;;;;;;5029495;28;20435;-88
2021/01/06 07:01:35;;;;;;;12.30;9.73;;;2.90;99.90;;;;;;5029629;28;20445;-88
2021/01/06 07:04:06;;;;;;;12.37;10.30;;;2.80;99.90;;;;;;5030474;28;20484;-86
2021/01/06 07:06:34;;;;;;;11.30;9.65;;;2.90;99.90;;;;;;5030221;28;20452;-86
2021/01/06 07:09:03;;;;;;;10.97;9.80;;;2.90;99.90;;;;;;5030848;28;20197;-86
2021/01/06 07:11:35;;;;;;;10.07;9.07;;;2.90;99.90;;;;;;5030624;28;20481;-87
2021/01/06 07:14:05;;;;;;;11.77;10.40;;;2.90;99.90;;;;;;5029512;28;20468;-87
2021/01/06 07:16:57;;;;;;;10.60;9.07;;;2.90;99.90;;;;;;5030278;28;20444;-86
2021/01/06 07:19:27;;;;;;;11.67;10.47;;;3.00;99.90;;;;;;5030596;28;20448;-86
2021/01/06 07:22:02;;;;;;;9.60;8.70;;;2.90;99.90;;;;;;5030484;28;20448;-85
2021/01/06 07:24:29;;;;;;;11.67;9.80;;;2.90;99.90;;;;;;5028710;28;20484;-87
2021/01/06 07:26:59;;;;;;;10.40;9.13;;;2.90;99.90;;;;;;5030684;28;20452;-88
2021/01/06 07:29:31;;;;;;;12.23;9.20;;;2.90;99.90;;;;;;5030545;28;20440;-87
2021/01/06 07:32:03;;;;;;;10.10;9.00;;;2.90;99.90;;;;;;5028799;28;20839;-87
2021/01/06 07:34:41;;;;;;;10.50;9.03;;;3.00;99.90;;;;;;5028737;28;20438;-87
2021/01/06 07:37:25;;;;;;;15.73;9.87;;;2.90;99.90;;;;;;5029812;28;20444;-87
2021/01/06 07:39:59;;;;;;;9.97;8.47;;;2.90;99.90;;;;;;5032297;28;21698;-88
2021/01/06 07:42:35;;;;;;;14.80;10.20;;;3.00;99.90;;;;;;5034435;28;20465;-88
2021/01/06 07:45:29;;;;;;;10.10;8.83;;;3.00;99.90;;;;;;5032345;28;20472;-86
2021/01/06 07:48:05;;;;;;;10.63;9.63;;;3.10;99.90;;;;;;5033952;28;20458;-89
2021/01/06 07:50:35;;;;;;;11.60;9.43;;;3.10;99.90;;;;;;5032799;28;20514;-86
2021/01/06 07:53:06;;;;;;;10.13;8.90;;;3.10;99.90;;;;;;5033983;28;20464;-87
2021/01/06 07:55:37;;;;;;;10.50;9.40;;;3.10;99.90;;;;;;5032653;28;20440;-86
2021/01/06 07:58:09;;;;;;;10.20;8.97;;;3.10;99.90;;;;;;5034061;28;20445;-86
2021/01/06 08:00:41;;;;;;;10.30;8.87;;;3.10;99.90;;;;;;5033960;28;20448;-85
2021/01/06 08:03:20;;;;;;;10.20;9.10;;;3.10;99.90;;;;;;5034151;28;20476;-86
2021/01/06 08:05:55;;;;;;;13.30;11.23;;;3.00;99.90;;;;;;5032445;28;20494;-87
2021/01/06 08:08:23;;;;;;;11.23;9.73;;;3.00;99.90;;;;;;5033303;28;20576;-86
2021/01/06 08:10:51;;;;;;;11.03;9.93;;;3.00;99.90;;;;;;5033877;28;20456;-86
2021/01/06 08:13:25;;;;;;;13.00;9.80;;;3.10;99.90;;;;;;5033586;28;20468;-86
2021/01/06 08:15:55;;;;;;;11.50;9.23;;;3.00;99.90;;;;;;5033597;28;20449;-87
2021/01/06 08:18:34;;;;;;;13.70;10.60;;;3.00;99.90;;;;;;5033860;28;20451;-87
2021/01/06 08:21:10;;;;;;;11.67;9.50;;;3.00;99.90;;;;;;5032668;28;20448;-86
2021/01/06 08:24:04;;;;;;;13.43;10.67;;;2.90;99.90;;;;;;5032368;28;20449;-87
2021/01/06 08:26:34;;;;;;;12.43;10.83;;;2.90;99.90;;;;;;5030065;28;21036;-88
2021/01/06 08:29:14;;;;;;;11.03;9.77;;;2.90;99.90;;;;;;5032476;28;20445;-86
2021/01/06 08:31:40;;;;;;;11.90;10.30;;;2.90;99.90;;;;;;5033801;28;20451;-86
2021/01/06 08:34:07;;;;;;;10.93;9.80;;;2.90;99.90;;;;;;5033701;28;20520;-87
2021/01/06 08:36:37;;;;;;;11.60;9.47;;;2.90;99.90;;;;;;5033598;28;20949;-86
2021/01/06 08:39:10;;;;;;;11.90;10.60;;;2.90;99.90;;;;;;5033487;28;20945;-86
2021/01/06 08:41:37;;;;;;;14.17;11.10;;;2.90;99.90;;;;;;5033486;28;20440;-86
2021/01/06 08:44:05;;;;;;;11.97;10.63;;;2.90;99.90;;;;;;5033471;28;20533;-87
2021/01/06 08:46:34;;;;;;;14.60;11.27;;;2.90;99.90;;;;;;5033038;28;20437;-86
2021/01/06 08:49:22;;;;;;;13.93;11.50;;;3.00;99.90;;;;;;5033348;28;20600;-87
2021/01/06 08:51:48;;;;;;;13.50;10.73;;;3.00;99.90;;;;;;5031512;28;20487;-87
2021/01/06 08:54:17;;;;;;;16.37;11.20;;;3.00;99.90;;;;;;5033202;28;20440;-88
2021/01/06 08:56:44;;;;;;;12.40;10.87;;;3.00;99.90;;;;;;5031154;28;20456;-86
2021/01/06 08:59:26;;;;;;;11.23;9.87;;;3.00;99.90;;;;;;5033195;28;20963;-87
2021/01/06 09:01:55;;;;;;;14.03;12.57;;;3.00;99.90;;;;;;5032529;28;20544;-87
2021/01/06 09:04:32;;;;;;;12.03;10.40;;;3.00;99.90;;;;;;5032867;28;20859;-86
2021/01/06 09:07:14;;;;;;;13.47;10.40;;;3.00;99.90;;;;;;5031674;28;20526;-86
2021/01/06 09:09:55;;;;;;;12.43;11.00;;;3.00;99.90;;;;;;5038895;28;20444;-86
2021/01/06 09:12:27;;;;;;;11.73;10.53;;;3.10;99.90;;;;;;5036098;28;20468;-86
2021/01/06 09:14:57;;;;;;;12.33;9.70;;;3.10;99.90;;;;;;5032437;28;20448;-87
2021/01/06 09:17:44;;;;;;;13.20;10.20;;;3.10;99.90;;;;;;5032754;28;20441;-87
2021/01/06 09:20:15;;;;;;;12.57;10.00;;;3.10;99.90;;;;;;5032722;28;20451;-87
2021/01/06 09:22:42;;;;;;;13.07;10.30;;;3.00;99.90;;;;;;5030556;28;20477;-87
2021/01/06 09:25:15;;;;;;;10.40;9.30;;;3.00;99.90;;;;;;5032327;28;20477;-87
2021/01/06 09:27:45;;;;;;;12.10;10.63;;;3.00;99.90;;;;;;5032402;28;20447;-87
2021/01/06 09:30:22;;;;;;;11.50;9.90;;;3.00;99.90;;;;;;5032761;28;20448;-87
2021/01/06 09:32:49;;;;;;;12.17;10.53;;;3.00;99.90;;;;;;5031144;28;20468;-87
2021/01/06 09:35:21;;;;;;;14.30;10.27;;;3.10;99.90;;;;;;5032403;28;20445;-91
2021/01/06 09:37:55;;;;;;;11.10;9.83;;;3.10;99.90;;;;;;5030677;28;20451;-83
2021/01/06 09:40:25;;;;;;;11.53;10.30;;;3.10;99.90;;;;;;5032328;28;20479;-81
2021/01/06 09:42:57;;;;;;;14.37;11.77;;;3.20;99.90;;;;;;5032153;28;20523;-83
2021/01/06 09:45:26;;;;;;;11.93;10.00;;;3.10;99.90;;;;;;5031388;28;20476;-83
2021/01/06 09:47:57;;;;;;;12.47;10.70;;;3.10;99.90;;;;;;5032212;28;20869;-81
2021/01/06 09:50:28;;;;;;;12.60;10.93;;;3.20;99.90;;;;;;5032418;28;20996;-88
2021/01/06 09:52:57;;;;;;;13.20;11.17;;;3.10;99.90;;;;;;5030449;28;20465;-87
2021/01/06 09:55:27;;;;;;;12.60;11.30;;;3.10;99.90;;;;;;5031718;28;20440;-87
2021/01/06 09:58:03;;;;;;;14.43;11.67;;;3.10;99.90;;;;;;5031097;28;20448;-87
2021/01/06 10:00:39;;;;;;;15.17;12.00;;;3.10;99.90;;;;;;5030456;28;20568;-87
2021/01/06 10:03:06;;;;;;;11.37;10.17;;;3.10;99.90;;;;;;5030083;28;20949;-87
2021/01/06 10:06:00;;;;;;;12.10;10.53;;;3.20;99.90;;;;;;5030339;28;20476;-87
2021/01/06 10:08:34;;;;;;;10.67;9.20;;;3.20;99.90;;;;;;5030263;28;20456;-87
2021/01/06 10:11:06;;;;;;;11.50;10.00;;;3.20;99.90;;;;;;5030494;28;20476;-88
2021/01/06 10:13:51;;;;;;;15.30;11.50;;;3.20;99.90;;;;;;5030249;28;20969;-88
2021/01/06 10:16:22;;;;;;;13.97;11.50;;;3.20;99.90;;;;;;5030520;28;20472;-88
2021/01/06 10:18:59;;;;;;;12.70;11.10;;;3.20;99.90;;;;;;5030645;28;20535;-87
2021/01/06 10:21:33;;;;;;;15.10;11.40;;;3.20;99.90;;;;;;5031539;28;20473;-87
2021/01/06 10:24:22;;;;;;;12.90;11.37;;;3.20;99.90;;;;;;5030191;28;20538;-88
2021/01/06 10:26:55;;;;;;;12.90;10.43;;;3.20;99.90;;;;;;5029825;28;20456;-90
2021/01/06 10:29:39;;;;;;;14.70;11.93;;;3.20;99.90;;;;;;5031632;28;20448;-87
2021/01/06 10:32:27;;;;;;;12.50;10.50;;;3.20;99.90;;;;;;5031143;28;20527;-88
2021/01/06 10:35:23;;;;;;;15.10;11.37;;;3.20;99.90;;;;;;5030892;28;20452;-88
2021/01/06 10:37:49;;;;;;;12.43;10.70;;;3.10;99.90;;;;;;5025173;28;20466;-86
2021/01/06 10:40:17;;;;;;;14.70;11.30;;;3.20;99.90;;;;;;5031664;28;20436;-88
2021/01/06 10:42:46;;;;;;;16.10;11.60;;;3.20;99.90;;;;;;5031106;28;20824;-87
2021/01/06 10:45:17;;;;;;;12.50;10.57;;;3.20;99.90;;;;;;5031318;28;20976;-88
2021/01/06 10:47:48;;;;;;;13.80;10.70;;;3.30;99.90;;;;;;5031584;28;20420;-88
2021/01/06 10:50:45;;;;;;;14.00;11.60;;;3.20;99.90;;;;;;5031703;28;20449;-87
2021/01/06 10:53:24;;;;;;;14.30;11.07;;;3.20;99.90;;;;;;5023721;28;20476;-87
2021/01/06 10:55:59;;;;;;;13.30;11.10;;;3.20;99.90;;;;;;5031462;28;20445;-87
2021/01/06 10:58:36;;;;;;;14.60;12.23;;;3.20;99.90;;;;;;5030852;28;20836;-87
2021/01/06 11:01:47;;;;;;;13.30;11.70;;;3.10;99.90;;;;;;5028945;28;20447;-87
2021/01/06 11:04:30;;;;;;;13.60;11.70;;;3.10;99.90;;;;;;5015569;28;20523;-87
2021/01/06 11:07:03;;;;;;;15.20;12.70;;;3.10;99.90;;;;;;5030140;28;20467;-86
2021/01/06 11:10:04;;;;;;;14.67;12.93;;;3.10;99.90;;;;;;5030953;28;20850;-89
2021/01/06 11:12:46;;;;;;;17.50;12.90;;;3.10;99.90;;;;;;5016892;28;20464;-88
2021/01/06 11:15:24;;;;;;;13.63;11.63;;;3.20;99.90;;;;;;5029756;28;20455;-88
2021/01/06 11:18:14;;;;;;;13.00;11.60;;;3.20;99.90;;;;;;5029508;28;20445;-88
2021/01/06 11:20:45;;;;;;;13.33;10.57;;;3.20;99.90;;;;;;5031822;28;20876;-90
2021/01/06 11:24:02;;;;;;;14.20;12.70;;;3.20;99.90;;;;;;5038387;28;20465;-87
2021/01/06 11:26:45;;;;;;;16.97;15.13;;;3.20;99.90;;;;;;4960157;29;20459;-89
2021/01/06 11:29:22;;;;;;;14.13;11.60;;;3.20;99.90;;;;;;5029813;28;20441;-88
2021/01/06 11:32:23;;;;;;;15.30;12.50;;;3.20;99.90;;;;;;5027345;28;20444;-88
2021/01/06 11:35:06;;;;;;;15.63;12.53;;;3.20;99.90;;;;;;5028942;28;20440;-87
2021/01/06 11:37:38;;;;;;;15.27;12.77;;;3.20;99.90;;;;;;5028918;28;20477;-86
2021/01/06 11:40:07;;;;;;;16.20;12.70;;;3.20;99.90;;;;;;5028886;28;20428;-88
2021/01/06 11:43:12;;;;;;;21.37;12.93;;;3.30;99.90;;;;;;5028737;28;20448;-88
2021/01/06 11:45:47;;;;;;;14.43;11.47;;;3.40;99.90;;;;;;4985226;28;20484;-88
2021/01/06 11:48:26;;;;;;;15.00;11.93;;;3.30;99.90;;;;;;5031030;28;20449;-87
2021/01/06 11:50:53;;;;;;;16.63;12.93;;;3.30;99.90;;;;;;5029166;28;20451;-87
2021/01/06 11:53:27;;;;;;;15.57;12.80;;;3.30;99.90;;;;;;5030718;28;20461;-87
2021/01/06 11:56:07;;;;;;;15.97;14.27;;;3.20;99.90;;;;;;5029112;28;20436;-86
2021/01/06 11:59:02;;;;;;;18.50;13.60;;;3.30;99.90;;;;;;5029082;28;20475;-87
2021/01/06 12:01:43;;;;;;;14.47;11.60;;;3.20;99.90;;;;;;5029688;28;20440;-87
2021/01/06 12:04:45;;;;;;;17.43;12.60;;;3.30;99.90;;;;;;5029117;28;20610;-87
2021/01/06 12:07:31;;;;;;;14.43;12.30;;;3.40;99.90;;;;;;5016042;28;20448;-87
2021/01/06 12:10:09;;;;;;;14.27;12.57;;;3.40;99.90;;;;;;5029964;28;20478;-87
2021/01/06 12:12:59;;;;;;;19.70;13.10;;;3.50;99.90;;;;;;5030315;28;20968;-87
2021/01/06 12:15:52;;;;;;;18.20;13.60;;;3.50;99.90;;;;;;5019080;28;20444;-87
2021/01/06 12:18:46;;;;;;;16.87;13.90;;;3.40;99.90;;;;;;5027646;28;20972;-87
2021/01/06 12:21:45;;;;;;;17.40;13.50;;;3.40;99.90;;;;;;5011418;28;20479;-87
2021/01/06 12:24:22;;;;;;;14.90;13.30;;;3.50;99.90;;;;;;5029433;28;20487;-88
2021/01/06 12:26:57;;;;;;;17.03;14.17;;;3.40;99.90;;;;;;5030060;28;20464;-88
2021/01/06 12:29:28;;;;;;;19.03;14.60;;;3.30;99.90;;;;;;5032400;28;20454;-87
2021/01/06 12:31:59;;;;;;;17.93;15.53;;;3.40;99.90;;;;;;5033731;28;20451;-88
2021/01/06 12:34:33;;;;;;;18.27;14.27;;;3.40;99.90;;;;;;5033368;28;20436;-89
2021/01/06 12:37:23;;;;;;;18.23;16.33;;;3.40;99.90;;;;;;5033500;28;20949;-87
2021/01/06 12:40:07;;;;;;;23.87;16.53;;;3.40;99.90;;;;;;5031746;28;20435;-87
2021/01/06 12:42:39;;;;;;;19.47;15.60;;;3.50;99.90;;;;;;5031597;28;20543;-87
2021/01/06 12:45:20;;;;;;;17.03;14.63;;;3.50;99.90;;;;;;5031681;28;20479;-88
2021/01/06 12:47:54;;;;;;;17.67;14.80;;;3.50;99.90;;;;;;5032964;28;20453;-86
2021/01/06 12:50:25;;;;;;;17.23;14.50;;;3.50;99.90;;;;;;5031718;28;20437;-86
2021/01/06 12:52:55;;;;;;;19.07;15.27;;;3.50;99.90;;;;;;5031901;28;20451;-88
2021/01/06 12:55:29;;;;;;;17.73;14.90;;;3.50;99.90;;;;;;5031089;28;20487;-87
2021/01/06 12:57:59;;;;;;;16.13;12.30;;;3.60;99.90;;;;;;5032019;28;21000;-87
2021/01/06 13:00:33;;;;;;;17.10;13.43;;;3.60;99.90;;;;;;5033043;28;20429;-86
2021/01/06 13:03:27;;;;;;;19.20;15.17;;;3.60;99.90;;;;;;5033256;28;20841;-86
2021/01/06 13:06:02;;;;;;;18.90;14.50;;;3.50;99.90;;;;;;5031556;28;20477;-86
2021/01/06 13:08:52;;;;;;;15.23;12.67;;;3.50;99.90;;;;;;5032269;28;20483;-86
2021/01/06 13:11:24;;;;;;;17.20;13.20;;;3.50;99.90;;;;;;5031157;28;20529;-87
2021/01/06 13:14:11;;;;;;;20.07;14.57;;;3.50;99.90;;;;;;5031130;28;20566;-86